sensor_id;sensor_type;location;lat;lon;timestamp;temperature;humidity
13856;DHT22;6998;53.608;9.958;2022-11-18T17:02:28;-0.40;99.90
13856;DHT22;6998;53.608;9.958;2022-11-18T17:05:15;-0.50;99.90
13856;DHT22;6998;53.608;9.958;2022-11-18T17:11:46;-0.50;99.90
13856;DHT22;6998;53.608;9.958;2022-11-18T17:15:39;-0.50;99.90
13856;DHT22;6998;53.608;9.958;2022-11-18T17:25:05;-0.60;99.90
13856;DHT22;6998;53.608;9.958;2022-11-18T17:31:16;-0.60;99.90
13856;DHT22;6998;53.608;9.958;2022-11-18T17:53:41;-0.80;99.90
13856;DHT22;6998;53.608;9.958;2022-11-18T17:56:38;-0.90;99.90
13856;DHT22;6998;53.608;9.958;2022-11-18T18:00:11;-0.90;99.90
13856;DHT22;6998;53.608;9.958;2022-11-18T18:06:13;-0.90;99.90
13856;DHT22;6998;53.608;9.958;2022-11-18T18:09:10;-1.00;99.90
13856;DHT22;6998;53.608;9.958;2022-11-18T18:15:30;-0.90;99.90
13856;DHT22;6998;53.608;9.958;2022-11-18T18:18:18;-0.90;99.90
13856;DHT22;6998;53.608;9.958;2022-11-18T18:21:21;-0.90;99.90
13856;DHT22;6998;53.608;9.958;2022-11-18T18:24:10;-0.90;99.90
13856;DHT22;6998;53.608;9.958;2022-11-18T18:27:07;-1.00;99.90
13856;DHT22;6998;53.608;9.958;2022-11-18T18:30:05;-1.00;99.90
13856;DHT22;6998;53.608;9.958;2022-11-18T18:35:55;-1.10;99.90
13856;DHT22;6998;53.608;9.958;2022-11-18T18:38:38;-1.10;99.90
13856;DHT22;6998;53.608;9.958;2022-11-18T18:51:14;-1.20;99.90
13856;DHT22;6998;53.608;9.958;2022-11-18T18:54:18;-1.20;99.90
13856;DHT22;6998;53.608;9.958;2022-11-18T19:00:14;-1.30;99.90
13856;DHT22;6998;53.608;9.958;2022-11-18T19:03:29;-1.30;99.90
13856;DHT22;6998;53.608;9.958;2022-11-18T19:06:51;-1.40;99.90
13856;DHT22;6998;53.608;9.958;2022-11-18T19:09:28;-1.30;99.90
13856;DHT22;6998;53.608;9.958;2022-11-18T19:11:55;-1.30;99.90
13856;DHT22;6998;53.608;9.958;2022-11-18T19:17:41;-1.40;99.90
13856;DHT22;6998;53.608;9.958;2022-11-18T19:20:35;-1.40;99.90
13856;DHT22;6998;53.608;9.958;2022-11-18T19:26:46;-1.40;99.90
13856;DHT22;6998;53.608;9.958;2022-11-18T19:29:21;-1.40;99.90
13856;DHT22;6998;53.608;9.958;2022-11-18T19:31:54;-1.50;99.90
13856;DHT22;6998;53.608;9.958;2022-11-18T19:34:24;-1.50;99.90
13856;DHT22;6998;53.608;9.958;2022-11-18T19:37:11;-1.50;99.90
13856;DHT22;6998;53.608;9.958;2022-11-18T19:39:42;-1.50;99.90
13856;DHT22;6998;53.608;9.958;2022-11-18T19:42:45;-1.50;99.90
13856;DHT22;6998;53.608;9.958;2022-11-18T19:45:30;-1.40;99.90
13856;DHT22;6998;53.608;9.958;2022-11-18T19:47:58;-1.40;99.90
13856;DHT22;6998;53.608;9.958;2022-11-18T19:50:32;-1.20;99.90
13856;DHT22;6998;53.608;9.958;2022-11-18T19:53:21;-1.20;99.90
13856;DHT22;6998;53.608;9.958;2022-11-18T19:56:09;-1.20;99.90
13856;DHT22;6998;53.608;9.958;2022-11-18T20:02:09;-1.20;99.90
13856;DHT22;6998;53.608;9.958;2022-11-18T20:05:15;-1.20;99.90
13856;DHT22;6998;53.608;9.958;2022-11-18T20:08:00;-1.30;99.90
13856;DHT22;6998;53.608;9.958;2022-11-18T20:10:48;-1.30;99.90
13856;DHT22;6998;53.608;9.958;2022-11-18T20:13:41;-1.40;99.90
13856;DHT22;6998;53.608;9.958;2022-11-18T20:16:28;-1.40;99.90
13856;DHT22;6998;53.608;9.958;2022-11-18T20:19:06;-1.50;99.90
13856;DHT22;6998;53.608;9.958;2022-11-18T20:22:03;-1.50;99.90
13856;DHT22;6998;53.608;9.958;2022-11-18T20:24:38;-1.60;99.90
13856;DHT22;6998;53.608;9.958;2022-11-18T20:33:46;-1.60;99.90
13856;DHT22;6998;53.608;9.958;2022-11-18T20:36:38;-1.60;99.90
13856;DHT22;6998;53.608;9.958;2022-11-18T20:39:28;-1.60;99.90
13856;DHT22;6998;53.608;9.958;2022-11-18T20:42:12;-1.50;99.90
13856;DHT22;6998;53.608;9.958;2022-11-18T20:45:02;-1.50;99.90
13856;DHT22;6998;53.608;9.958;2022-11-18T20:47:31;-1.50;99.90
13856;DHT22;6998;53.608;9.958;2022-11-18T20:50:31;-1.50;99.90
13856;DHT22;6998;53.608;9.958;2022-11-18T20:53:53;-1.50;99.90
13856;DHT22;6998;53.608;9.958;2022-11-18T20:56:38;-1.60;99.90
13856;DHT22;6998;53.608;9.958;2022-11-18T20:59:05;-1.60;99.90
13856;DHT22;6998;53.608;9.958;2022-11-18T21:01:37;-1.70;99.90
13856;DHT22;6998;53.608;9.958;2022-11-18T21:04:11;-1.70;99.90
13856;DHT22;6998;53.608;9.958;2022-11-18T21:06:46;-1.70;99.90
13856;DHT22;6998;53.608;9.958;2022-11-18T21:09:25;-1.70;99.90
13856;DHT22;6998;53.608;9.958;2022-11-18T21:11:57;-1.70;99.90
13856;DHT22;6998;53.608;9.958;2022-11-18T21:15:09;-1.70;99.90
13856;DHT22;6998;53.608;9.958;2022-11-18T21:17:59;-1.70;99.90
13856;DHT22;6998;53.608;9.958;2022-11-18T21:20:27;-1.80;99.90
13856;DHT22;6998;53.608;9.958;2022-11-18T21:23:13;-1.80;99.90
13856;DHT22;6998;53.608;9.958;2022-11-18T21:26:04;-1.80;99.90
13856;DHT22;6998;53.608;9.958;2022-11-18T21:28:33;-1.80;99.90
13856;DHT22;6998;53.608;9.958;2022-11-18T21:31:01;-1.90;99.90
13856;DHT22;6998;53.608;9.958;2022-11-18T21:36:14;-2.00;99.90
13856;DHT22;6998;53.608;9.958;2022-11-18T21:38:41;-2.00;99.90
13856;DHT22;6998;53.608;9.958;2022-11-18T21:41:12;-2.00;99.90
13856;DHT22;6998;53.608;9.958;2022-11-18T21:44:08;-2.00;99.90
13856;DHT22;6998;53.608;9.958;2022-11-18T21:46:42;-2.00;99.90
13856;DHT22;6998;53.608;9.958;2022-11-18T21:49:44;-2.10;99.90
13856;DHT22;6998;53.608;9.958;2022-11-18T21:52:13;-2.10;99.90
13856;DHT22;6998;53.608;9.958;2022-11-18T21:54:57;-2.10;99.90
13856;DHT22;6998;53.608;9.958;2022-11-18T21:57:35;-2.10;99.90
13856;DHT22;6998;53.608;9.958;2022-11-18T22:00:22;-2.20;99.90
13856;DHT22;6998;53.608;9.958;2022-11-18T22:02:49;-2.10;99.90
13856;DHT22;6998;53.608;9.958;2022-11-18T22:05:36;-2.10;99.90
13856;DHT22;6998;53.608;9.958;2022-11-18T22:08:26;-2.10;99.90
13856;DHT22;6998;53.608;9.958;2022-11-18T22:10:58;-2.10;99.90
13856;DHT22;6998;53.608;9.958;2022-11-18T22:13:27;-2.20;99.90
13856;DHT22;6998;53.608;9.958;2022-11-18T22:16:14;-2.20;99.90
13856;DHT22;6998;53.608;9.958;2022-11-18T22:18:46;-2.30;99.90
13856;DHT22;6998;53.608;9.958;2022-11-18T22:21:39;-2.20;99.90
13856;DHT22;6998;53.608;9.958;2022-11-18T22:24:17;-2.20;99.90
13856;DHT22;6998;53.608;9.958;2022-11-18T22:30:01;-2.30;99.90
13856;DHT22;6998;53.608;9.958;2022-11-18T22:38:57;-2.40;99.90
13856;DHT22;6998;53.608;9.958;2022-11-18T22:41:34;-2.40;99.90
13856;DHT22;6998;53.608;9.958;2022-11-18T22:44:18;-2.40;99.90
13856;DHT22;6998;53.608;9.958;2022-11-18T22:46:48;-2.40;99.90
13856;DHT22;6998;53.608;9.958;2022-11-18T22:49:22;-2.30;99.90
13856;DHT22;6998;53.608;9.958;2022-11-18T22:52:21;-2.40;99.90
13856;DHT22;6998;53.608;9.958;2022-11-18T22:55:03;-2.40;99.90
13856;DHT22;6998;53.608;9.958;2022-11-18T22:57:37;-2.40;99.90
13856;DHT22;6998;53.608;9.958;2022-11-18T23:31:49;-2.60;99.90
13856;DHT22;6998;53.608;9.958;2022-11-18T23:58:47;-2.80;99.90
